Time;durP1;ratioP1;P1;durP2;ratioP2;P2;SDS_P1;SDS_P2;PMS_P1;PMS_P2;Temp;Humidity;BMP_temperature;BMP_pressure;BME280_temperature;BME280_humidity;BME280_pressure;Samples;Min_cycle;Max_cycle;Signal;HPM_P1;HPM_P2
2021/10/08 12:26:24;;;;;;;7.30;2.15;;;15.10;99.90;;;;;;5071206;28;20882;-89
2021/10/08 12:28:52;;;;;;;3.22;2.20;;;15.30;99.90;;;;;;5071617;28;20182;-88
2021/10/08 12:31:18;;;;;;;2.08;1.98;;;15.40;99.90;;;;;;5070645;28;20203;-88
2021/10/08 12:33:46;;;;;;;2.70;2.45;;;15.60;99.90;;;;;;5070919;28;20511;-88
2021/10/08 12:36:20;;;;;;;2.28;2.17;;;15.80;99.90;;;;;;5071007;28;20545;-92
2021/10/08 12:39:05;;;;;;;3.03;2.25;;;15.90;99.90;;;;;;5069582;28;20164;-84
2021/10/08 12:41:36;;;;;;;2.33;2.13;;;16.00;99.90;;;;;;5070793;28;20203;-83
2021/10/08 12:44:10;;;;;;;2.47;2.28;;;16.20;99.90;;;;;;5068977;28;20215;-84
2021/10/08 12:46:39;;;;;;;2.58;2.47;;;17.00;99.90;;;;;;5070705;28;20501;-77
2021/10/08 12:49:06;;;;;;;2.13;2.03;;;16.60;99.90;;;;;;5070617;28;20201;-77
2021/10/08 12:51:51;;;;;;;3.53;2.53;;;16.60;99.90;;;;;;5070458;28;20168;-77
2021/10/08 12:54:25;;;;;;;2.45;2.25;;;16.70;99.90;;;;;;5070544;28;20168;-77
2021/10/08 12:57:11;;;;;;;2.40;2.20;;;16.80;99.90;;;;;;5069332;28;20167;-78
2021/10/08 13:00:07;;;;;;;2.10;2.00;;;16.80;99.90;;;;;;5070502;28;20172;-78
2021/10/08 13:02:46;;;;;;;2.22;2.10;;;16.90;99.90;;;;;;5065578;28;20638;-80
2021/10/08 13:05:13;;;;;;;4.15;2.05;;;17.00;99.90;;;;;;5070168;28;20219;-83
2021/10/08 13:07:39;;;;;;;2.13;2.00;;;17.00;99.90;;;;;;5070308;28;20230;-84
2021/10/08 13:10:20;;;;;;;2.35;2.13;;;16.90;99.90;;;;;;5068828;28;20177;-84
2021/10/08 13:12:49;;;;;;;2.03;1.92;;;16.70;99.90;;;;;;5070562;28;20198;-85
2021/10/08 13:15:23;;;;;;;2.22;2.13;;;16.70;99.90;;;;;;5069987;28;20638;-84
2021/10/08 13:18:11;;;;;;;2.10;1.98;;;16.80;99.90;;;;;;5070161;28;20231;-85
2021/10/08 13:20:40;;;;;;;2.33;2.22;;;16.90;99.90;;;;;;5069838;28;20153;-84
2021/10/08 13:23:07;;;;;;;2.28;2.08;;;17.20;99.90;;;;;;5070130;28;20192;-84
2021/10/08 13:25:35;;;;;;;2.90;2.28;;;17.40;99.90;;;;;;5069536;28;20216;-85
2021/10/08 13:28:01;;;;;;;3.08;2.50;;;17.60;99.90;;;;;;5070048;28;20155;-94
2021/10/08 13:30:27;;;;;;;2.47;2.38;;;17.70;99.90;;;;;;5070633;28;20168;-92
2021/10/08 13:32:52;;;;;;;2.00;1.90;;;17.90;99.90;;;;;;5070767;28;20159;-94
2021/10/08 13:35:18;;;;;;;2.30;2.20;;;18.00;99.90;;;;;;5070379;28;20179;-95
2021/10/08 13:37:44;;;;;;;2.33;2.13;;;18.10;99.90;;;;;;5058157;28;20226;-91
2021/10/08 13:40:10;;;;;;;2.40;2.30;;;18.30;99.90;;;;;;5058140;28;20183;-91
2021/10/08 13:42:35;;;;;;;2.17;2.08;;;18.60;99.90;;;;;;5057535;28;20157;-81
2021/10/08 13:45:01;;;;;;;4.35;2.20;;;18.50;99.90;;;;;;5056654;28;20239;-89
2021/10/08 13:47:27;;;;;;;2.40;2.30;;;18.50;99.90;;;;;;5055500;28;20487;-85
2021/10/08 13:49:52;;;;;;;4.10;2.28;;;18.40;99.90;;;;;;5055370;28;20183;-85
2021/10/08 13:52:18;;;;;;;2.53;2.30;;;18.40;99.90;;;;;;5056781;28;20172;-90
2021/10/08 13:54:45;;;;;;;4.28;2.33;;;18.40;99.90;;;;;;5058215;28;20175;-94
2021/10/08 13:57:11;;;;;;;2.50;2.30;;;18.40;99.90;;;;;;5073556;28;20169;-93
2021/10/08 13:59:42;;;;;;;2.63;2.22;;;17.80;99.90;;;;;;5074528;28;20240;-94
2021/10/08 14:02:17;;;;;;;3.58;2.22;;;17.90;99.90;;;;;;5069641;28;20631;-93
2021/10/08 14:04:49;;;;;;;2.20;2.10;;;17.50;99.90;;;;;;5055586;28;20251;-93
2021/10/08 14:10:20;;;;;;;2.70;2.55;;;17.00;99.90;;;;;;5056665;28;20198;-90
2021/10/08 14:12:46;;;;;;;4.72;2.40;;;17.20;99.90;;;;;;5054930;28;20206;-94
2021/10/08 14:15:18;;;;;;;4.15;2.42;;;17.60;99.90;;;;;;5054430;28;20215;-85
2021/10/08 14:17:59;;;;;;;2.60;2.45;;;17.90;99.90;;;;;;5054627;28;20222;-86
2021/10/08 14:20:51;;;;;;;2.92;2.72;;;18.30;99.90;;;;;;5054775;28;20180;-86
2021/10/08 14:23:17;;;;;;;3.90;2.97;;;18.50;99.90;;;;;;5055324;28;20219;-85
2021/10/08 14:25:43;;;;;;;2.97;2.22;;;18.60;99.90;;;;;;5054248;28;20677;-85
2021/10/08 14:28:08;;;;;;;2.25;2.05;;;18.70;99.90;;;;;;5054407;28;20199;-86
2021/10/08 14:30:34;;;;;;;2.67;2.33;;;18.80;99.90;;;;;;5054063;28;20157;-86
2021/10/08 14:33:00;;;;;;;3.40;2.58;;;18.90;99.90;;;;;;5053934;28;20176;-87
2021/10/08 14:35:26;;;;;;;3.40;2.72;;;19.00;99.90;;;;;;5053993;28;20249;-88
2021/10/08 14:37:51;;;;;;;4.32;2.65;;;19.00;99.90;;;;;;5054236;28;20172;-86
2021/10/08 14:40:17;;;;;;;3.75;3.03;;;19.00;99.90;;;;;;5061198;28;20164;-84
2021/10/08 14:42:47;;;;;;;3.75;2.53;;;18.80;99.90;;;;;;5054304;28;20180;-84
2021/10/08 14:45:16;;;;;;;3.13;2.47;;;18.70;99.90;;;;;;5055651;28;20188;-83
2021/10/08 14:47:42;;;;;;;3.13;2.10;;;18.80;99.90;;;;;;5053867;28;20195;-83
2021/10/08 14:50:08;;;;;;;3.22;2.58;;;18.90;99.90;;;;;;5055766;28;20168;-86
2021/10/08 14:52:34;;;;;;;2.38;2.28;;;19.00;99.90;;;;;;5055873;28;20274;-85
2021/10/08 14:57:55;;;;;;;5.22;2.25;;;19.10;99.90;;;;;;5056300;28;20160;-85
2021/10/08 15:00:21;;;;;;;2.08;1.85;;;19.20;99.90;;;;;;5056880;28;20165;-91
2021/10/08 15:02:46;;;;;;;2.25;2.15;;;19.20;99.90;;;;;;5056078;28;20176;-91
2021/10/08 15:05:12;;;;;;;2.33;2.15;;;19.20;99.90;;;;;;5055577;28;20199;-91
2021/10/08 15:07:38;;;;;;;2.13;2.00;;;19.30;99.90;;;;;;5054445;28;20172;-93
2021/10/08 15:10:04;;;;;;;3.13;2.17;;;19.20;99.90;;;;;;5054836;28;20171;-76
2021/10/08 15:12:29;;;;;;;3.22;2.20;;;19.20;99.90;;;;;;5052959;28;20207;-76
2021/10/08 15:14:55;;;;;;;2.33;2.22;;;19.00;99.90;;;;;;5054132;28;20198;-76
2021/10/08 15:17:20;;;;;;;4.10;2.22;;;18.70;99.90;;;;;;5054170;28;20168;-76
2021/10/08 15:19:46;;;;;;;3.03;2.72;;;18.40;99.90;;;;;;5054332;28;20169;-76
2021/10/08 15:22:12;;;;;;;3.67;2.22;;;18.00;99.90;;;;;;5054394;28;20551;-76
2021/10/08 15:24:37;;;;;;;2.78;2.67;;;17.60;99.90;;;;;;5053641;28;20221;-76
2021/10/08 15:27:03;;;;;;;2.72;2.42;;;17.30;99.90;;;;;;5054281;28;20180;-85
2021/10/08 15:29:29;;;;;;;2.92;2.65;;;17.40;99.90;;;;;;5053162;28;20169;-86
2021/10/08 15:31:55;;;;;;;2.78;2.55;;;17.50;99.90;;;;;;5053149;28;20179;-89
2021/10/08 15:34:21;;;;;;;2.70;2.60;;;17.60;99.90;;;;;;5054644;28;20171;-85
2021/10/08 15:36:47;;;;;;;4.65;2.92;;;17.70;99.90;;;;;;5054344;28;20255;-75
2021/10/08 15:39:13;;;;;;;4.38;2.65;;;17.80;99.90;;;;;;5052984;28;20177;-74
2021/10/08 15:41:40;;;;;;;3.47;3.28;;;17.80;99.90;;;;;;5054063;28;20165;-75
2021/10/08 15:44:05;;;;;;;3.38;3.17;;;17.80;99.90;;;;;;5052631;28;20614;-75
2021/10/08 15:46:31;;;;;;;5.57;3.60;;;17.80;99.90;;;;;;5053751;28;20165;-75
2021/10/08 15:48:57;;;;;;;4.75;3.15;;;17.80;99.90;;;;;;5053680;28;20207;-75
2021/10/08 15:51:22;;;;;;;4.20;3.28;;;17.70;99.90;;;;;;5053567;28;20169;-75
2021/10/08 15:53:48;;;;;;;4.45;2.83;;;17.70;99.90;;;;;;5053651;28;20169;-75
2021/10/08 15:56:13;;;;;;;4.53;3.13;;;17.70;99.90;;;;;;5053639;28;20173;-75
2021/10/08 15:58:39;;;;;;;3.55;3.20;;;17.60;99.90;;;;;;5052266;28;20259;-75
2021/10/08 16:01:05;;;;;;;2.90;2.70;;;17.60;99.90;;;;;;5053347;28;20168;-75
2021/10/08 16:03:30;;;;;;;3.33;3.13;;;17.40;99.90;;;;;;5053768;28;20622;-75
2021/10/08 16:05:57;;;;;;;4.88;3.20;;;17.40;99.90;;;;;;5053836;28;20204;-75
2021/10/08 16:08:23;;;;;;;4.38;3.28;;;17.40;99.90;;;;;;5052422;28;20176;-75
2021/10/08 16:10:48;;;;;;;3.50;3.30;;;17.30;99.90;;;;;;5053543;28;20629;-75
2021/10/08 16:13:14;;;;;;;4.72;3.30;;;17.30;99.90;;;;;;5053722;28;20169;-75
2021/10/08 16:15:44;;;;;;;4.90;3.47;;;17.20;99.90;;;;;;5053417;28;20660;-75
2021/10/08 16:18:20;;;;;;;5.88;3.22;;;17.10;99.90;;;;;;5053414;28;20686;-75
2021/10/08 16:20:46;;;;;;;3.55;3.25;;;17.00;99.90;;;;;;5053668;28;20169;-75
2021/10/08 16:23:12;;;;;;;3.58;2.97;;;16.80;99.90;;;;;;5053415;28;20203;-75
2021/10/08 16:25:38;;;;;;;3.63;3.42;;;16.70;99.90;;;;;;5053291;28;20360;-75
2021/10/08 16:28:04;;;;;;;3.35;3.15;;;16.60;99.90;;;;;;5053612;28;20527;-75
2021/10/08 16:30:30;;;;;;;3.50;2.95;;;16.50;99.90;;;;;;5053470;28;20219;-75
2021/10/08 16:32:56;;;;;;;4.75;3.42;;;16.30;99.90;;;;;;5053371;28;20169;-75
2021/10/08 16:35:28;;;;;;;6.13;4.78;;;16.10;99.90;;;;;;5053528;28;20169;-89
2021/10/08 16:37:54;;;;;;;6.68;4.95;;;15.90;99.90;;;;;;5054138;28;20228;-88
2021/10/08 16:40:19;;;;;;;4.57;4.28;;;15.70;99.90;;;;;;5053565;28;20208;-88
2021/10/08 16:42:45;;;;;;;4.72;4.28;;;15.50;99.90;;;;;;5053592;28;20184;-88
2021/10/08 16:45:21;;;;;;;4.97;4.20;;;15.40;99.90;;;;;;5053444;28;20589;-89
2021/10/08 16:47:49;;;;;;;5.55;4.13;;;15.20;99.90;;;;;;5053675;28;20215;-88
2021/10/08 16:50:15;;;;;;;5.28;4.88;;;15.10;99.90;;;;;;5053485;28;20642;-86
2021/10/08 16:52:41;;;;;;;5.43;4.85;;;14.90;99.90;;;;;;5053354;28;20170;-88
